LICT/TPS METAR and TAF weather

Enter ICAO airport designator
Station Type Date Time Source
LICT METAR 2022/11/27 08:55 UTC NOAA

LICT 270855Z 04012KT 9999 SCT023 16/12 Q1016


Station Type Date Time Source
LICT Decoded METAR 2022/11/27 08:55 UTC NOAA

Trapani / Birgi, Italy (LICT) 37-55N 012-30E 14M
Nov 27, 2022 - 03:55 AM EST / 2022.11.27 0855 UTC
Wind: from the NE (040 degrees) at 14 MPH (12 KT):0
Visibility: greater than 7 mile(s):0
Sky conditions: partly cloudy
Temperature: 60 F (16 C)
Dew Point: 53 F (12 C)
Relative Humidity: 77%
Pressure (altimeter): 30.00 in. Hg (1016 hPa)
ob: LICT 270855Z 04012KT 9999 SCT023 16/12 Q1016
cycle: 9

Station Type Date Time Source
LICT TAF 2021/10/13 09:24 UTC NOAA

TAF TAF LICT 130800Z 1309/1321 26012KT 9999 SCT025 SCT040
TEMPO 1309/1313 SHRA FEW018CB BKN020
TEMPO 1313/1321 5000 TSRA BKN012 FEW018CB

Example: see airport list